KMDQ

Huntsville Executive Tom Sharp Jr Field Airport

Huntsville, Alabama, USA
METAR KMDQ 201910Z AUTO 31008KT 10SM OVC021 17/13 A3005 RMK A02 T01700126
Observed Flight Rules
Oct-20 @ 19:10 UTC (31 minutes ago) Marginal Visual Flight Rules
Wind Visibility Clouds
310° at 8 knots 10 miles
  • Overcast at 2,100' AGL
Temperatures Readings
Current 17°C / 63°F
Dewpoint 13°C / 55°F
Humidity 77%
Altimeter 30.05" Hg
Pressure 1018 hPa
Elevation 230
METAR KMDQ 201910Z AUTO 31008KT 10SM OVC021 17/13 A3005 RMK A02 T01700126
Observed Flight Rules
Oct-20 @ 19:10 UTC
(31 minutes ago)
MVFR
Wind Visibility
310° at 8 knots 10 miles
Clouds
  • Overcast at 2,100' AGL
Temperature Dewpoint
17°C / 63°F 13°C / 55°F
Humidity Altimeter Pressure
77% 30.05" Hg 1018 hPa